createdAt,value
2018-12-20T00:02:27.737Z,9.27
2018-12-20T00:07:31.070Z,8.47
2018-12-20T00:12:34.384Z,9.17
2018-12-20T00:17:43.109Z,9.03
2018-12-20T00:22:46.345Z,8.23
2018-12-20T00:27:49.658Z,8.43
2018-12-20T00:32:52.976Z,9.77
2018-12-20T00:37:56.302Z,9.17
2018-12-20T00:42:59.621Z,8.77
2018-12-20T00:48:02.844Z,8.83
2018-12-20T00:53:06.140Z,8.53
2018-12-20T00:58:09.363Z,9.17
2018-12-20T01:03:12.846Z,8.60
2018-12-20T01:08:16.038Z,9.13
2018-12-20T01:13:19.188Z,9.33
2018-12-20T01:18:22.365Z,8.87
2018-12-20T01:23:25.667Z,8.83
2018-12-20T01:28:29.098Z,9.13
2018-12-20T01:33:32.388Z,8.70
2018-12-20T01:38:35.882Z,9.07
2018-12-20T01:43:39.219Z,8.60
2018-12-20T01:48:42.645Z,9.40
2018-12-20T01:53:45.846Z,9.50
2018-12-20T01:58:49.008Z,8.90
2018-12-20T02:03:52.158Z,9.17
2018-12-20T02:08:55.357Z,10.17
2018-12-20T02:13:58.518Z,9.40
2018-12-20T02:19:01.993Z,8.87
2018-12-20T02:24:05.501Z,8.63
2018-12-20T02:29:08.732Z,9.07
2018-12-20T02:34:11.991Z,9.50
2018-12-20T02:39:15.355Z,9.03
2018-12-20T02:44:18.592Z,9.03
2018-12-20T02:49:22.018Z,9.60
2018-12-20T02:54:25.335Z,9.03
2018-12-20T02:59:28.726Z,9.03
2018-12-20T03:04:32.094Z,9.20
2018-12-20T03:09:35.365Z,9.43
2018-12-20T03:14:38.738Z,9.23
2018-12-20T03:19:42.096Z,9.40
2018-12-20T03:24:45.579Z,10.37
2018-12-20T03:29:49.080Z,8.97
2018-12-20T03:34:52.375Z,9.20
2018-12-20T03:39:56.843Z,10.20
2018-12-20T03:45:00.224Z,10.27
2018-12-20T03:50:03.757Z,9.57
2018-12-20T03:55:07.170Z,9.27
2018-12-20T04:00:10.425Z,10.53
2018-12-20T04:05:13.863Z,10.40
2018-12-20T04:10:17.336Z,10.05
2018-12-20T04:15:20.823Z,9.93
2018-12-20T04:20:24.004Z,9.90
2018-12-20T04:25:27.428Z,9.97
2018-12-20T04:30:30.784Z,9.60
2018-12-20T04:35:34.017Z,10.53
2018-12-20T04:40:37.348Z,11.03
2018-12-20T04:45:46.654Z,13.83
2018-12-20T04:50:45.947Z,10.23
2018-12-20T04:55:49.178Z,11.37
2018-12-20T05:00:52.453Z,10.37
2018-12-20T05:05:55.822Z,9.60
2018-12-20T05:10:59.339Z,11.87
2018-12-20T05:16:02.589Z,12.17
2018-12-20T05:21:05.789Z,11.43
2018-12-20T05:26:09.037Z,10.23
2018-12-20T05:31:12.298Z,10.17
2018-12-20T05:36:15.874Z,10.33
2018-12-20T05:41:19.201Z,9.37
2018-12-20T05:46:22.410Z,10.97
2018-12-20T05:51:25.823Z,10.10
2018-12-20T05:56:29.040Z,10.07
2018-12-20T06:01:32.183Z,10.03
2018-12-20T06:06:35.397Z,10.13
2018-12-20T06:11:38.749Z,10.43
2018-12-20T06:16:41.944Z,10.03
2018-12-20T06:21:45.181Z,10.60
2018-12-20T06:26:48.344Z,10.73
2018-12-20T06:31:51.562Z,9.30
2018-12-20T06:36:54.753Z,10.40
2018-12-20T06:41:57.965Z,10.23
2018-12-20T06:47:01.125Z,10.27
2018-12-20T06:52:04.313Z,10.27
2018-12-20T06:57:07.468Z,8.55
2018-12-20T07:02:10.625Z,10.43
2018-12-20T07:07:13.777Z,9.40
2018-12-20T07:12:17.067Z,10.40
2018-12-20T07:17:20.304Z,10.63
2018-12-20T07:22:23.519Z,9.70
2018-12-20T07:27:26.668Z,9.83
2018-12-20T07:32:29.834Z,9.87
2018-12-20T07:37:33.012Z,10.30
2018-12-20T07:42:36.192Z,15.73
2018-12-20T07:47:39.352Z,9.90
2018-12-20T07:52:42.504Z,9.63
2018-12-20T07:57:45.895Z,10.03
2018-12-20T08:02:49.112Z,9.93
2018-12-20T08:07:52.290Z,9.37
2018-12-20T08:12:55.513Z,10.50
2018-12-20T08:17:58.823Z,9.90
2018-12-20T08:23:02.009Z,10.80
2018-12-20T08:28:05.210Z,9.83
2018-12-20T08:33:08.401Z,9.97
2018-12-20T08:38:11.589Z,9.93
2018-12-20T08:43:14.801Z,10.40
2018-12-20T08:48:17.989Z,9.50
2018-12-20T08:53:21.218Z,10.03
2018-12-20T08:58:24.419Z,9.30
2018-12-20T09:03:27.592Z,9.93
2018-12-20T09:08:30.869Z,10.13
2018-12-20T09:13:34.092Z,10.33
2018-12-20T09:18:37.428Z,10.03
2018-12-20T09:23:40.637Z,9.83
2018-12-20T09:28:43.836Z,10.10
2018-12-20T09:33:47.024Z,9.83
2018-12-20T09:38:50.238Z,9.67
2018-12-20T09:43:53.410Z,9.73
2018-12-20T09:48:57.282Z,8.57
2018-12-20T09:54:00.527Z,8.30
2018-12-20T09:59:03.788Z,9.10
2018-12-20T10:04:07.002Z,9.13
2018-12-20T10:09:10.165Z,8.93
2018-12-20T10:14:13.378Z,9.60
2018-12-20T10:19:16.600Z,9.60
2018-12-20T10:24:19.828Z,9.05
2018-12-20T10:29:23.017Z,9.83
2018-12-20T10:34:26.238Z,8.90
2018-12-20T10:39:29.454Z,9.27
2018-12-20T10:44:32.742Z,8.77
2018-12-20T10:49:36.073Z,9.23
2018-12-20T10:54:39.254Z,8.13
2018-12-20T10:59:42.429Z,8.47
2018-12-20T11:04:50.990Z,8.90
2018-12-20T11:10:28.796Z,8.43
2018-12-20T11:15:31.956Z,7.50
2018-12-20T11:20:35.148Z,8.17
2018-12-20T11:25:38.398Z,8.17
2018-12-20T11:30:41.572Z,8.63
2018-12-20T11:35:44.724Z,8.20
2018-12-20T11:40:47.888Z,7.97
2018-12-20T11:45:51.041Z,9.87
2018-12-20T11:50:54.367Z,8.13
2018-12-20T11:55:57.529Z,8.30
2018-12-20T12:01:00.789Z,8.10
2018-12-20T12:06:04.669Z,7.70
2018-12-20T12:11:07.964Z,7.73
2018-12-20T12:16:11.184Z,7.23
2018-12-20T12:21:14.400Z,6.50
2018-12-20T12:26:17.560Z,6.37
2018-12-20T12:31:20.729Z,6.17
2018-12-20T12:36:23.892Z,5.53
2018-12-20T12:41:27.137Z,5.93
2018-12-20T12:46:30.307Z,5.67
2018-12-20T12:51:33.485Z,6.07
2018-12-20T12:56:36.646Z,7.13
2018-12-20T13:01:39.865Z,6.40
2018-12-20T13:06:43.085Z,6.53
2018-12-20T13:11:46.249Z,6.23
2018-12-20T13:16:49.436Z,6.00
2018-12-20T13:21:52.608Z,5.80
2018-12-20T13:26:56.149Z,5.67
2018-12-20T13:31:59.362Z,6.23
2018-12-20T13:37:02.534Z,5.80
2018-12-20T13:42:05.810Z,5.83
2018-12-20T13:47:09.098Z,4.93
2018-12-20T13:52:12.335Z,5.23
2018-12-20T13:57:15.606Z,4.90
2018-12-20T14:02:18.821Z,5.27
2018-12-20T14:07:22.022Z,3.97
2018-12-20T14:12:25.265Z,3.47
2018-12-20T14:17:28.479Z,3.30
2018-12-20T14:22:31.649Z,3.93
2018-12-20T14:27:34.863Z,3.25
2018-12-20T14:32:38.024Z,2.60
2018-12-20T14:37:41.279Z,2.63
2018-12-20T14:42:44.530Z,2.67
2018-12-20T14:47:47.805Z,2.53
2018-12-20T14:52:51.081Z,2.60
2018-12-20T14:57:54.268Z,2.23
2018-12-20T15:02:57.612Z,2.03
2018-12-20T15:08:00.805Z,1.90
2018-12-20T15:13:04.146Z,2.50
2018-12-20T15:18:07.406Z,2.00
2018-12-20T15:23:11.446Z,1.93
2018-12-20T15:28:14.726Z,1.73
2018-12-20T15:33:18.219Z,1.73
2018-12-20T15:38:21.833Z,2.03
2018-12-20T15:43:25.103Z,2.00
2018-12-20T15:48:28.269Z,1.97
2018-12-20T15:53:31.460Z,1.80
2018-12-20T15:58:34.617Z,2.30
2018-12-20T16:03:37.824Z,3.50
2018-12-20T16:08:41.051Z,2.30
2018-12-20T16:13:44.250Z,2.80
2018-12-20T16:18:47.411Z,2.37
2018-12-20T16:23:50.609Z,2.50
2018-12-20T16:28:53.809Z,2.33
2018-12-20T16:33:57.019Z,2.50
2018-12-20T16:39:00.239Z,2.33
2018-12-20T16:44:03.401Z,2.00
2018-12-20T16:49:13.545Z,2.13
2018-12-20T16:54:11.768Z,1.90
2018-12-20T16:59:14.929Z,2.10
2018-12-20T17:04:18.189Z,2.50
2018-12-20T17:09:21.437Z,2.40
2018-12-20T17:14:24.613Z,2.17
2018-12-20T17:19:27.832Z,2.07
2018-12-20T17:24:31.019Z,2.63
2018-12-20T17:29:34.229Z,2.40
2018-12-20T17:34:37.410Z,2.57
2018-12-20T17:39:40.570Z,2.73
2018-12-20T17:44:43.749Z,2.70
2018-12-20T17:49:46.953Z,3.63
2018-12-20T17:54:50.157Z,3.33
2018-12-20T17:59:53.415Z,3.00
2018-12-20T18:04:56.654Z,2.83
2018-12-20T18:09:59.888Z,3.23
2018-12-20T18:15:03.387Z,3.60
2018-12-20T18:20:09.472Z,10.47
2018-12-20T18:25:13.998Z,3.12
2018-12-20T18:30:18.652Z,3.80
2018-12-20T18:35:23.096Z,3.00
2018-12-20T18:40:27.709Z,2.70
2018-12-20T18:45:32.328Z,2.37
2018-12-20T18:50:35.752Z,2.53
2018-12-20T18:55:39.144Z,2.13
2018-12-20T19:00:42.382Z,2.20
2018-12-20T19:05:45.553Z,4.93
2018-12-20T19:10:48.740Z,2.00
2018-12-20T19:15:51.907Z,2.07
2018-12-20T19:20:55.071Z,1.60
2018-12-20T19:25:58.255Z,1.37
2018-12-20T19:31:02.384Z,1.17
2018-12-20T19:36:06.287Z,1.37
2018-12-20T19:41:10.101Z,1.43
2018-12-20T19:46:15.604Z,1.37
2018-12-20T19:51:20.201Z,0.90
2018-12-20T19:56:25.012Z,0.97
2018-12-20T20:01:29.693Z,1.13
2018-12-20T20:06:34.338Z,0.90
2018-12-20T20:11:38.996Z,1.00
2018-12-20T20:16:50.599Z,1.30
2018-12-20T20:21:50.144Z,0.87
2018-12-20T20:26:54.846Z,1.20
2018-12-20T20:31:58.081Z,1.00
2018-12-20T20:37:01.274Z,1.30
2018-12-20T20:42:04.509Z,1.10
2018-12-20T20:47:08.511Z,1.10
2018-12-20T20:52:11.776Z,4.57
2018-12-20T20:57:14.961Z,1.20
2018-12-20T21:02:18.275Z,1.73
2018-12-20T21:07:21.889Z,1.37
2018-12-20T21:12:25.169Z,1.50
2018-12-20T21:17:28.430Z,1.40
2018-12-20T21:22:31.718Z,1.50
2018-12-20T21:27:34.957Z,1.83
2018-12-20T21:32:38.258Z,1.77
2018-12-20T21:37:41.522Z,1.60
2018-12-20T21:42:44.722Z,1.87
2018-12-20T21:47:47.904Z,1.80
2018-12-20T21:52:51.182Z,1.50
2018-12-20T21:57:54.340Z,1.90
2018-12-20T22:02:57.515Z,1.70
2018-12-20T22:08:00.686Z,1.60
2018-12-20T22:13:03.917Z,1.70
2018-12-20T22:25:49.236Z,1.50
2018-12-20T22:30:52.516Z,1.50
2018-12-20T22:35:55.785Z,1.67
2018-12-20T22:40:59.014Z,1.53
2018-12-20T22:46:02.269Z,1.60
2018-12-20T22:51:05.495Z,1.67
2018-12-20T22:56:08.770Z,1.30
2018-12-20T23:01:11.961Z,1.83
2018-12-20T23:06:15.149Z,1.33
2018-12-20T23:11:18.330Z,1.67
2018-12-20T23:16:21.805Z,1.60
2018-12-20T23:21:25.025Z,1.50
2018-12-20T23:26:28.249Z,1.37
2018-12-20T23:31:31.513Z,1.60
2018-12-20T23:36:34.680Z,1.60
2018-12-20T23:41:37.969Z,1.33
2018-12-20T23:46:41.190Z,1.03
2018-12-20T23:51:45.419Z,1.10
2018-12-20T23:56:48.899Z,0.80
